createdAt,value
2018-04-17T00:01:01.437Z,99.90
2018-04-17T00:03:29.060Z,99.90
2018-04-17T00:05:57.069Z,99.90
2018-04-17T00:08:24.689Z,99.90
2018-04-17T00:10:53.073Z,99.90
2018-04-17T00:13:20.733Z,99.90
2018-04-17T00:15:48.358Z,99.90
2018-04-17T00:18:15.983Z,99.90
2018-04-17T00:20:43.646Z,99.90
2018-04-17T00:23:11.262Z,99.90
2018-04-17T00:25:40.565Z,99.90
2018-04-17T00:28:08.324Z,99.90
2018-04-17T00:30:35.938Z,99.90
2018-04-17T00:33:03.561Z,99.90
2018-04-17T00:35:31.225Z,99.90
2018-04-17T00:37:58.841Z,99.90
2018-04-17T00:40:27.237Z,99.90
2018-04-17T00:42:54.900Z,99.90
2018-04-17T00:45:23.299Z,99.90
2018-04-17T00:47:50.925Z,99.90
2018-04-17T00:50:18.585Z,99.90
2018-04-17T00:52:46.205Z,99.90
2018-04-17T00:55:14.591Z,99.90
2018-04-17T00:57:43.030Z,99.90
2018-04-17T01:00:10.770Z,99.90
2018-04-17T01:02:39.162Z,99.90
2018-04-17T01:05:06.829Z,99.90
2018-04-17T01:07:35.213Z,99.90
2018-04-17T01:10:03.632Z,99.90
2018-04-17T01:12:31.304Z,99.90
2018-04-17T01:14:58.925Z,99.90
2018-04-17T01:17:26.541Z,99.90
2018-04-17T01:19:54.201Z,99.90
2018-04-17T01:22:22.593Z,99.90
2018-04-17T01:24:50.985Z,99.90
2018-04-17T01:27:19.413Z,99.90
2018-04-17T01:29:47.033Z,99.90
2018-04-17T01:32:14.650Z,99.90
2018-04-17T01:34:42.308Z,99.90
2018-04-17T01:37:10.849Z,99.90
2018-04-17T01:39:38.464Z,99.90
2018-04-17T01:42:06.889Z,99.90
2018-04-17T01:44:34.512Z,99.90
2018-04-17T01:47:02.125Z,99.90
2018-04-17T01:49:29.782Z,99.90
2018-04-17T01:51:57.393Z,99.90
2018-04-17T01:54:25.009Z,99.90
2018-04-17T01:56:53.436Z,99.90
2018-04-17T01:59:21.049Z,99.90
2018-04-17T02:01:48.673Z,99.90
2018-04-17T02:04:16.408Z,99.90
2018-04-17T02:06:44.025Z,99.90
2018-04-17T02:09:11.646Z,99.90
2018-04-17T02:11:39.309Z,99.90
2018-04-17T02:14:06.927Z,99.90
2018-04-17T02:16:35.301Z,99.90
2018-04-17T02:19:02.949Z,99.90
2018-04-17T02:21:30.610Z,99.90
2018-04-17T02:23:58.245Z,99.90
2018-04-17T02:26:25.998Z,99.90
2018-04-17T02:28:54.386Z,99.90
2018-04-17T02:31:22.000Z,99.90
2018-04-17T02:33:49.657Z,99.90
2018-04-17T02:36:17.273Z,99.90
2018-04-17T02:38:44.929Z,99.90
2018-04-17T02:41:12.687Z,99.90
2018-04-17T02:43:41.229Z,99.90
2018-04-17T02:46:08.957Z,99.90
2018-04-17T02:48:36.709Z,99.90
2018-04-17T02:51:05.095Z,99.90
2018-04-17T02:53:33.469Z,99.90
2018-04-17T02:56:01.126Z,99.90
2018-04-17T02:58:28.753Z,99.90
2018-04-17T03:00:56.370Z,99.90
2018-04-17T03:03:24.147Z,99.90
2018-04-17T03:05:51.770Z,99.90
2018-04-17T03:08:19.385Z,99.90
2018-04-17T03:10:47.055Z,99.90
2018-04-17T03:13:14.680Z,99.90
2018-04-17T03:15:43.073Z,99.90
2018-04-17T03:18:11.494Z,99.90
2018-04-17T03:20:39.117Z,99.90
2018-04-17T03:23:06.731Z,99.90
2018-04-17T03:25:34.408Z,99.90
2018-04-17T03:28:02.032Z,99.90
2018-04-17T03:30:29.653Z,99.90
2018-04-17T03:32:57.417Z,99.90
2018-04-17T03:35:25.033Z,99.90
2018-04-17T03:37:52.694Z,99.90
2018-04-17T03:40:20.366Z,99.90
2018-04-17T03:42:48.014Z,99.90
2018-04-17T03:45:15.629Z,99.90
2018-04-17T03:47:43.398Z,99.90
2018-04-17T03:50:12.482Z,99.90
2018-04-17T03:52:42.800Z,99.90
2018-04-17T03:55:10.417Z,99.90
2018-04-17T03:57:38.271Z,99.90
2018-04-17T04:00:05.933Z,99.90
2018-04-17T04:02:33.599Z,99.90
2018-04-17T04:05:01.277Z,99.90
2018-04-17T04:07:29.109Z,99.90
2018-04-17T04:09:56.730Z,99.90
2018-04-17T04:12:24.353Z,99.90
2018-04-17T04:14:52.114Z,99.90
2018-04-17T04:17:31.729Z,99.90
2018-04-17T04:20:11.401Z,99.90
2018-04-17T04:22:50.977Z,99.90
2018-04-17T04:25:30.737Z,99.90
2018-04-17T04:27:58.353Z,99.90
2018-04-17T04:30:26.737Z,99.90
2018-04-17T04:32:55.185Z,99.90
2018-04-17T04:35:22.810Z,99.90
2018-04-17T04:37:51.215Z,99.90
2018-04-17T04:40:18.930Z,99.90
2018-04-17T04:42:46.679Z,99.90
2018-04-17T04:45:14.302Z,99.90
2018-04-17T04:47:42.956Z,99.90
2018-04-17T04:50:10.623Z,99.90
2018-04-17T04:52:38.283Z,99.90
2018-04-17T04:55:05.953Z,99.90
2018-04-17T04:57:33.581Z,99.90
2018-04-17T05:00:01.193Z,99.90
2018-04-17T05:02:28.949Z,99.90
2018-04-17T05:04:57.355Z,99.90
2018-04-17T05:07:25.155Z,99.90
2018-04-17T05:09:52.822Z,99.90
2018-04-17T05:12:20.436Z,99.90
2018-04-17T05:14:48.174Z,99.90
2018-04-17T05:17:15.843Z,99.90
2018-04-17T05:19:43.465Z,99.90
2018-04-17T05:22:11.095Z,99.90
2018-04-17T05:24:38.763Z,99.90
2018-04-17T05:27:06.383Z,99.90
2018-04-17T05:29:34.005Z,99.90
2018-04-17T05:32:01.682Z,99.90
2018-04-17T05:34:29.304Z,99.90
2018-04-17T05:36:56.929Z,99.90
2018-04-17T05:39:24.715Z,99.90
2018-04-17T05:41:52.377Z,99.90
2018-04-17T05:44:20.006Z,99.90
2018-04-17T05:46:47.753Z,99.90
2018-04-17T05:49:15.373Z,99.90
2018-04-17T05:51:43.781Z,99.90
2018-04-17T05:54:11.597Z,99.90
2018-04-17T05:56:39.221Z,99.90
2018-04-17T05:59:06.850Z,99.40
2018-04-17T06:01:34.513Z,98.50
2018-04-17T06:04:02.129Z,97.10
2018-04-17T06:06:30.511Z,97.60
2018-04-17T06:08:58.949Z,98.00
2018-04-17T06:11:26.579Z,98.00
2018-04-17T06:13:54.968Z,97.10
2018-04-17T06:16:22.641Z,97.10
2018-04-17T06:18:51.029Z,98.20
2018-04-17T06:21:18.654Z,98.30
2018-04-17T06:23:46.325Z,97.20
2018-04-17T06:26:13.945Z,97.10
2018-04-17T06:28:41.578Z,97.30
2018-04-17T06:31:09.266Z,97.20
2018-04-17T06:33:36.890Z,96.40
2018-04-17T06:36:04.505Z,96.30
2018-04-17T06:38:32.169Z,96.50
2018-04-17T06:40:59.794Z,96.30
2018-04-17T06:43:28.180Z,96.60
2018-04-17T06:45:56.621Z,97.10
2018-04-17T06:48:24.245Z,97.10
2018-04-17T06:50:52.633Z,97.20
2018-04-17T06:53:21.075Z,97.70
2018-04-17T06:55:48.702Z,97.60
2018-04-17T06:58:17.097Z,99.20
2018-04-17T07:00:45.523Z,99.80
2018-04-17T07:03:13.249Z,99.80
2018-04-17T07:05:40.870Z,99.80
2018-04-17T07:08:08.533Z,99.90
2018-04-17T07:10:36.157Z,99.90
2018-04-17T07:13:03.797Z,99.90
2018-04-17T07:15:31.478Z,99.90
2018-04-17T07:17:59.092Z,99.90
2018-04-17T07:20:27.486Z,99.90
2018-04-17T07:22:56.010Z,99.90
2018-04-17T07:25:23.678Z,99.90
2018-04-17T07:27:51.294Z,99.90
2018-04-17T07:30:18.962Z,99.90
2018-04-17T07:32:47.522Z,99.90
2018-04-17T07:35:15.139Z,99.90
2018-04-17T07:37:44.234Z,99.90
2018-04-17T07:40:11.853Z,99.90
2018-04-17T07:42:40.249Z,99.90
2018-04-17T07:45:08.682Z,99.90
2018-04-17T07:47:36.297Z,99.80
2018-04-17T07:50:03.929Z,99.90
2018-04-17T07:52:31.591Z,99.10
2018-04-17T07:54:59.205Z,99.40
2018-04-17T07:57:26.818Z,98.80
2018-04-17T07:59:54.485Z,98.70
2018-04-17T08:02:22.105Z,98.40
2018-04-17T08:04:49.766Z,97.40
2018-04-17T08:07:17.428Z,97.00
2018-04-17T08:09:45.044Z,96.10
2018-04-17T08:12:13.598Z,95.30
2018-04-17T08:14:41.265Z,93.40
2018-04-17T08:17:08.881Z,93.20
2018-04-17T08:19:36.550Z,93.40
2018-04-17T08:22:04.205Z,92.90
2018-04-17T08:24:31.820Z,92.10
2018-04-17T08:27:00.200Z,92.60
2018-04-17T08:29:27.965Z,92.50
2018-04-17T08:31:55.585Z,88.40
2018-04-17T08:34:23.212Z,84.40
2018-04-17T08:36:50.913Z,80.30
2018-04-17T08:39:19.293Z,80.20
2018-04-17T08:41:46.913Z,80.10
2018-04-17T08:44:14.568Z,76.70
2018-04-17T08:46:42.211Z,77.80
2018-04-17T08:49:10.598Z,74.90
2018-04-17T08:51:38.561Z,74.00
2018-04-17T08:54:06.212Z,74.30
2018-04-17T08:56:33.834Z,70.50
2018-04-17T08:59:02.258Z,69.50
2018-04-17T09:01:29.883Z,69.50
2018-04-17T09:03:57.503Z,69.50
2018-04-17T09:06:25.165Z,67.20
2018-04-17T09:08:52.782Z,66.20
2018-04-17T09:11:20.409Z,65.20
2018-04-17T09:13:48.074Z,62.80
2018-04-17T09:16:16.475Z,63.60
2018-04-17T09:18:44.093Z,63.60
2018-04-17T09:21:12.548Z,65.70
2018-04-17T09:23:40.185Z,65.60
2018-04-17T09:26:08.569Z,66.70
2018-04-17T09:28:36.294Z,66.70
2018-04-17T09:31:03.912Z,66.90
2018-04-17T09:33:31.529Z,65.80
2018-04-17T09:35:59.240Z,64.30
2018-04-17T09:38:26.845Z,63.80
2018-04-17T09:40:55.229Z,63.40
2018-04-17T09:43:22.892Z,63.40
2018-04-17T09:45:50.529Z,61.60
2018-04-17T09:48:18.140Z,60.70
2018-04-17T09:50:45.901Z,63.10
2018-04-17T09:53:13.517Z,64.80
2018-04-17T09:55:41.897Z,63.30
2018-04-17T09:58:09.565Z,63.20
2018-04-17T10:00:43.553Z,61.70
2018-04-17T10:03:11.310Z,61.70
2018-04-17T10:05:38.971Z,61.50
2018-04-17T10:08:06.637Z,60.20
2018-04-17T10:10:34.315Z,61.80
2018-04-17T10:13:01.929Z,61.90
2018-04-17T10:15:29.557Z,61.90
2018-04-17T10:17:57.212Z,59.40
2018-04-17T10:20:25.613Z,60.80
2018-04-17T10:22:53.229Z,60.70
2018-04-17T10:25:20.889Z,61.70
2018-04-17T10:27:48.508Z,62.10
2018-04-17T10:30:16.125Z,60.90
2018-04-17T10:32:43.781Z,61.60
2018-04-17T10:35:11.397Z,60.70
2018-04-17T10:37:39.042Z,64.80
2018-04-17T10:40:06.707Z,61.90
2018-04-17T10:42:34.325Z,61.70
2018-04-17T10:45:01.954Z,61.20
2018-04-17T10:47:29.624Z,61.00
2018-04-17T10:49:57.245Z,61.40
2018-04-17T10:52:24.905Z,62.30
2018-04-17T10:54:52.565Z,59.40
2018-04-17T10:57:20.186Z,60.20
2018-04-17T10:59:47.847Z,58.20
2018-04-17T11:02:15.629Z,57.80
2018-04-17T11:04:43.257Z,59.20
2018-04-17T11:07:10.873Z,60.00
2018-04-17T11:09:38.535Z,59.90
2018-04-17T11:12:06.149Z,59.70
2018-04-17T11:14:33.770Z,58.70
2018-04-17T11:17:01.438Z,61.10
2018-04-17T11:19:29.053Z,58.30
2018-04-17T11:21:57.437Z,57.20
2018-04-17T11:24:25.099Z,57.30
2018-04-17T11:26:53.486Z,57.90
2018-04-17T11:29:21.109Z,57.90
2018-04-17T11:31:48.770Z,59.60
2018-04-17T11:34:16.393Z,58.70
2018-04-17T11:36:44.027Z,58.40
2018-04-17T11:39:11.822Z,59.10
2018-04-17T11:41:39.434Z,58.60
2018-04-17T11:44:07.830Z,58.50
2018-04-17T11:46:36.270Z,59.20
2018-04-17T11:49:03.896Z,59.20
2018-04-17T11:51:32.324Z,58.80
2018-04-17T11:53:59.985Z,58.80
2018-04-17T11:56:27.605Z,56.70
2018-04-17T11:58:55.225Z,58.20
2018-04-17T12:01:23.045Z,57.40
2018-04-17T12:03:50.695Z,58.20
2018-04-17T12:06:18.314Z,58.40
2018-04-17T12:08:45.969Z,58.50
2018-04-17T12:11:13.585Z,58.60
2018-04-17T12:13:41.970Z,56.50
2018-04-17T12:16:10.389Z,58.10
2018-04-17T12:18:38.006Z,58.10
2018-04-17T12:21:06.401Z,57.80
2018-04-17T12:23:34.119Z,57.10
2018-04-17T12:26:01.732Z,57.00
2018-04-17T12:28:29.353Z,56.20
2018-04-17T12:30:57.054Z,59.00
2018-04-17T12:33:24.669Z,56.90
2018-04-17T12:35:52.309Z,59.50
2018-04-17T12:38:20.085Z,57.90
2018-04-17T12:40:47.709Z,59.00
2018-04-17T12:43:15.957Z,57.40
2018-04-17T12:45:43.914Z,57.30
2018-04-17T12:48:11.528Z,56.20
2018-04-17T12:50:39.155Z,55.40
2018-04-17T12:53:06.809Z,57.70
2018-04-17T12:55:34.435Z,58.80
2018-04-17T12:58:02.174Z,59.50
2018-04-17T13:00:29.859Z,55.90
2018-04-17T13:02:57.481Z,56.60
2018-04-17T13:05:25.102Z,56.00
2018-04-17T13:07:52.762Z,56.70
2018-04-17T13:10:20.381Z,56.90
2018-04-17T13:12:48.785Z,59.10
2018-04-17T13:15:16.441Z,59.00
2018-04-17T13:17:44.083Z,56.90
2018-04-17T13:20:11.979Z,58.10
2018-04-17T13:22:39.642Z,59.50
2018-04-17T13:25:07.286Z,57.70
2018-04-17T13:27:34.915Z,56.10
2018-04-17T13:30:02.570Z,58.00
2018-04-17T13:32:30.190Z,57.80
2018-04-17T13:34:58.565Z,57.10
2018-04-17T13:37:26.229Z,57.00
2018-04-17T13:39:54.740Z,55.40
2018-04-17T13:42:23.167Z,55.10
2018-04-17T13:44:50.857Z,55.00
2018-04-17T13:47:18.482Z,55.20
2018-04-17T13:49:47.934Z,55.70
2018-04-17T13:52:15.718Z,55.70
2018-04-17T13:54:43.385Z,55.50
2018-04-17T13:57:11.054Z,55.50
2018-04-17T13:59:38.717Z,55.80
2018-04-17T14:02:06.341Z,56.50
2018-04-17T14:04:33.969Z,56.70
2018-04-17T14:07:01.637Z,58.30
2018-04-17T14:09:29.260Z,58.40
2018-04-17T14:11:56.985Z,58.50
2018-04-17T14:14:24.658Z,59.30
2018-04-17T14:16:52.283Z,58.40
2018-04-17T14:19:20.067Z,57.50
2018-04-17T14:21:47.744Z,58.00
2018-04-17T14:24:15.361Z,56.80
2018-04-17T14:26:43.043Z,55.50
2018-04-17T14:29:10.705Z,57.10
2018-04-17T14:31:38.321Z,57.10
2018-04-17T14:34:05.953Z,56.20
2018-04-17T14:36:33.609Z,55.80
2018-04-17T14:39:01.990Z,55.60
2018-04-17T14:41:30.381Z,54.80
2018-04-17T14:43:58.815Z,56.90
2018-04-17T14:46:26.443Z,56.80
2018-04-17T14:48:54.861Z,55.90
2018-04-17T14:51:22.593Z,55.80
2018-04-17T14:53:50.634Z,55.70
2018-04-17T14:56:18.259Z,55.70
2018-04-17T14:58:46.929Z,54.50
2018-04-17T15:01:14.548Z,54.40
2018-04-17T15:03:42.270Z,54.60
2018-04-17T15:06:10.119Z,56.00
2018-04-17T15:08:37.909Z,56.30
2018-04-17T15:11:05.529Z,56.00
2018-04-17T15:13:33.199Z,56.60
2018-04-17T15:16:00.832Z,55.50
2018-04-17T15:18:28.510Z,55.00
2018-04-17T15:20:56.183Z,55.90
2018-04-17T15:23:23.844Z,56.10
2018-04-17T15:25:51.471Z,57.10
2018-04-17T15:28:21.993Z,58.20
2018-04-17T15:30:49.732Z,58.10
2018-04-17T15:33:17.388Z,58.90
2018-04-17T15:35:45.054Z,58.80
2018-04-17T15:38:12.683Z,58.90
2018-04-17T15:40:41.141Z,57.70
2018-04-17T15:43:08.843Z,57.70
2018-04-17T15:45:36.470Z,58.00
2018-04-17T15:48:04.093Z,58.10
2018-04-17T15:50:31.978Z,58.40
2018-04-17T15:52:59.632Z,58.60
2018-04-17T15:55:27.270Z,59.70
2018-04-17T15:57:55.069Z,58.80
2018-04-17T16:00:22.685Z,59.00
2018-04-17T16:02:51.809Z,60.00
2018-04-17T16:05:21.371Z,59.80
2018-04-17T16:07:49.045Z,59.10
2018-04-17T16:10:16.679Z,59.20
2018-04-17T16:12:45.107Z,59.30
2018-04-17T16:15:12.822Z,59.30
2018-04-17T16:17:40.461Z,59.30
2018-04-17T16:20:08.126Z,59.60
2018-04-17T16:22:35.769Z,60.10
2018-04-17T16:25:04.184Z,62.10
2018-04-17T16:27:32.057Z,62.10
2018-04-17T16:29:59.677Z,61.90
2018-04-17T16:32:27.310Z,62.30
2018-04-17T16:34:55.093Z,62.40
2018-04-17T16:37:22.734Z,62.50
2018-04-17T16:39:51.935Z,62.00
2018-04-17T16:42:21.288Z,62.70
2018-04-17T16:44:48.924Z,62.50
2018-04-17T16:47:17.352Z,62.90
2018-04-17T16:49:45.150Z,62.80
2018-04-17T16:52:12.828Z,64.10
2018-04-17T16:54:40.501Z,63.10
2018-04-17T16:57:08.313Z,63.30
2018-04-17T16:59:36.729Z,62.30
2018-04-17T17:02:04.358Z,62.30
2018-04-17T17:04:32.039Z,62.20
2018-04-17T17:06:59.659Z,62.60
2018-04-17T17:09:27.288Z,63.10
2018-04-17T17:11:54.961Z,63.50
2018-04-17T17:14:22.582Z,64.00
2018-04-17T17:16:50.254Z,63.60
2018-04-17T17:19:18.445Z,63.20
2018-04-17T17:21:46.061Z,63.40
2018-04-17T17:24:13.690Z,63.60
2018-04-17T17:26:41.362Z,64.00
2018-04-17T17:29:09.025Z,63.90
2018-04-17T17:31:36.650Z,65.60
2018-04-17T17:34:04.311Z,65.90
2018-04-17T17:36:31.930Z,66.60
2018-04-17T17:38:59.553Z,66.30
2018-04-17T17:41:27.226Z,66.60
2018-04-17T17:43:54.842Z,67.00
2018-04-17T17:46:22.514Z,67.40
2018-04-17T17:48:50.202Z,67.70
2018-04-17T17:51:17.823Z,67.70
2018-04-17T17:53:45.459Z,68.70
2018-04-17T17:56:13.133Z,69.50
2018-04-17T17:58:40.757Z,70.30
2018-04-17T18:01:08.383Z,70.10
2018-04-17T18:03:36.057Z,69.90
2018-04-17T18:06:03.835Z,70.20
2018-04-17T18:08:31.508Z,70.40
2018-04-17T18:10:59.255Z,70.60
2018-04-17T18:13:27.651Z,71.20
2018-04-17T18:15:55.350Z,71.20
2018-04-17T18:18:23.131Z,71.80
2018-04-17T18:20:50.881Z,72.20
2018-04-17T18:23:18.511Z,73.10
2018-04-17T18:25:46.165Z,73.60
2018-04-17T18:28:13.800Z,74.10
2018-04-17T18:30:41.520Z,74.50
2018-04-17T18:33:09.278Z,74.90
2018-04-17T18:35:36.906Z,75.10
2018-04-17T18:38:05.363Z,75.90
2018-04-17T18:40:33.137Z,75.90
2018-04-17T18:43:00.787Z,76.20
2018-04-17T18:45:28.447Z,76.50
2018-04-17T18:47:56.158Z,76.80
2018-04-17T18:50:23.806Z,76.90
2018-04-17T18:52:52.158Z,77.50
2018-04-17T18:55:20.593Z,78.40
2018-04-17T18:57:48.230Z,78.30
2018-04-17T19:00:16.651Z,82.70
2018-04-17T19:02:44.334Z,82.70
2018-04-17T19:05:12.028Z,83.10
2018-04-17T19:07:39.845Z,82.10
2018-04-17T19:10:08.274Z,82.60
2018-04-17T19:12:35.959Z,82.50
2018-04-17T19:15:03.735Z,85.50
2018-04-17T19:17:32.336Z,84.10
2018-04-17T19:20:00.025Z,84.10
2018-04-17T19:22:27.740Z,85.10
2018-04-17T19:24:55.629Z,83.70
2018-04-17T19:27:23.318Z,85.70
2018-04-17T19:29:50.937Z,84.90
2018-04-17T19:32:18.598Z,85.90
2018-04-17T19:34:46.242Z,88.20
2018-04-17T19:37:13.902Z,86.30
2018-04-17T19:39:42.651Z,87.40
2018-04-17T19:42:11.214Z,86.20
2018-04-17T19:44:38.880Z,86.30
2018-04-17T19:47:07.661Z,86.40
2018-04-17T19:49:35.503Z,86.40
2018-04-17T19:52:03.143Z,85.90
2018-04-17T19:54:30.826Z,86.50
2018-04-17T19:56:58.511Z,87.00
2018-04-17T19:59:26.173Z,86.80
2018-04-17T20:01:54.790Z,86.80
2018-04-17T20:04:23.240Z,87.30
2018-04-17T20:06:50.905Z,87.10
2018-04-17T20:09:19.433Z,86.80
2018-04-17T20:11:47.088Z,86.40
2018-04-17T20:14:14.727Z,86.00
2018-04-17T20:16:43.176Z,86.00
2018-04-17T20:19:10.801Z,86.00
2018-04-17T20:21:38.427Z,85.80
2018-04-17T20:24:06.099Z,85.80
2018-04-17T20:26:34.501Z,85.90
2018-04-17T20:29:02.222Z,85.80
2018-04-17T20:31:30.617Z,86.30
2018-04-17T20:33:58.249Z,86.50
2018-04-17T20:36:26.642Z,86.80
2018-04-17T20:38:55.098Z,87.70
2018-04-17T20:41:23.682Z,87.90
2018-04-17T20:43:51.410Z,87.80
2018-04-17T20:46:19.223Z,87.60
2018-04-17T20:48:46.874Z,88.00
2018-04-17T20:51:14.513Z,88.80
2018-04-17T20:53:42.175Z,88.30
2018-04-17T20:56:09.794Z,88.60
2018-04-17T20:58:37.696Z,89.00
2018-04-17T21:01:05.415Z,89.50
2018-04-17T21:03:33.810Z,89.80
2018-04-17T21:06:01.473Z,89.70
2018-04-17T21:08:29.138Z,89.40
2018-04-17T21:10:56.753Z,90.10
2018-04-17T21:13:25.257Z,90.70
2018-04-17T21:15:53.129Z,90.60
2018-04-17T21:18:20.753Z,90.70
2018-04-17T21:20:48.477Z,90.80
2018-04-17T21:23:16.142Z,91.00
2018-04-17T21:25:43.798Z,91.00
2018-04-17T21:28:12.189Z,91.30
2018-04-17T21:30:40.713Z,91.50
2018-04-17T21:33:08.371Z,91.50
2018-04-17T21:35:36.000Z,91.40
2018-04-17T21:38:03.877Z,91.40
2018-04-17T21:40:31.509Z,91.40
2018-04-17T21:42:59.130Z,91.50
2018-04-17T21:45:26.793Z,91.40
2018-04-17T21:47:55.465Z,91.70
2018-04-17T21:50:23.089Z,91.70
2018-04-17T21:52:50.790Z,91.80
2018-04-17T21:55:18.413Z,92.60
2018-04-17T21:57:46.109Z,92.60
2018-04-17T22:00:13.770Z,92.50
2018-04-17T22:02:42.176Z,92.70
2018-04-17T22:05:10.569Z,92.80
2018-04-17T22:07:38.389Z,92.70
2018-04-17T22:10:06.166Z,92.70
2018-04-17T22:12:33.790Z,92.70
2018-04-17T22:15:01.827Z,93.00
2018-04-17T22:17:29.449Z,93.00
2018-04-17T22:19:57.841Z,93.40
2018-04-17T22:22:25.515Z,93.40
2018-04-17T22:24:53.239Z,93.50
2018-04-17T22:27:20.862Z,93.80
2018-04-17T22:29:48.571Z,93.70
2018-04-17T22:32:16.249Z,94.10
2018-04-17T22:34:43.923Z,94.20
2018-04-17T22:37:11.586Z,94.10
2018-04-17T22:39:39.206Z,94.20
2018-04-17T22:42:06.843Z,94.30
2018-04-17T22:44:34.513Z,94.40
2018-04-17T22:47:02.129Z,94.60
2018-04-17T22:49:29.761Z,94.50
2018-04-17T22:51:57.446Z,94.70
2018-04-17T22:54:25.096Z,94.60
2018-04-17T22:56:52.733Z,94.70
2018-04-17T22:59:21.161Z,94.90
2018-04-17T23:01:48.781Z,94.90
2018-04-17T23:04:16.401Z,94.90
2018-04-17T23:06:44.915Z,94.90
2018-04-17T23:09:12.536Z,94.90
2018-04-17T23:11:40.154Z,94.80
2018-04-17T23:14:07.832Z,94.90
2018-04-17T23:16:35.486Z,95.10
2018-04-17T23:19:03.925Z,95.30
2018-04-17T23:21:31.683Z,95.30
2018-04-17T23:23:59.317Z,95.40
2018-04-17T23:26:27.711Z,95.70
2018-04-17T23:28:56.215Z,95.90
2018-04-17T23:31:25.528Z,96.30
2018-04-17T23:33:53.209Z,96.10
2018-04-17T23:36:20.989Z,96.20
2018-04-17T23:38:48.625Z,96.50
2018-04-17T23:41:16.352Z,96.50
2018-04-17T23:43:44.048Z,96.70
2018-04-17T23:46:11.669Z,96.80
2018-04-17T23:48:40.057Z,97.20
2018-04-17T23:51:08.573Z,97.40
2018-04-17T23:53:36.194Z,97.40
2018-04-17T23:56:03.950Z,97.60
2018-04-17T23:58:31.615Z,97.70
